Forside
METAR-TAF:

METAR-TAF

Lufthavne :

Bullsbrook, Australien

Breddekreds: 31-40S, længdekreds: 116-01E, højde: 45 m

Aktuelle vejr

Denne rapport blev lavet for 27 minutter siden, kl. 02:00 UTC
Vind 12 kt fra vest, varierende mellem vestsydvest og nordvest
Temperatur 23°C
Fugtighed 61%
Tryk 1014 hPa
Sigt 10 km eller mere
Brudte skyer i en højde af 2600 ft
Spredte skyer i en højde af 2500 ft

METAR: YPEA 210200Z 28009KT 240V320 9999 BKN026 23/15 Q1014 FM0230 27012KT 9999 SCT025

Tid: 10:27 (02:27 UTC)

Vejrudsigter

Denne rapport blev lavet for 4 timer og 20 minutter siden, kl. 22:07 UTC
Foreløbig gælder fra 21 på 00 UTC til 21 på 18 UTC
Vind 5 kt fra vest
Sigt 10 km eller mere
Brudte skyer i en højde af 2000 ft
Fra 21 på 0200 UTC
Vind 12 kt fra vestsydvest
Sigt 10 km eller mere
Spredte skyer i en højde af 2500 ft
Fra 21 på 1400 UTC
Vind 5 kt fra sydvest
Sigt 10 km eller mere
Brudte skyer i en højde af 2000 ft

TAF: YPEA 202207Z 2100/2118 28005KT 9999 BKN020 FM210200 25012KT 9999 SCT025 FM211400 23005KT 9999 BKN020

Vejrobservationer og prognoser fra mere end 4000 lufthavne (METAR og TAF).

De gule og røde prikker repræsenterer de meteorologiske stationer.

Flyt musen over at se navnet på stationen.

Så klik over at se vejr observationer og prognoser.

At skifte det kort: Klik på de grønne knapper med et sort kors for at zoome ind; på den grønne knap med en bindestreg for at zoome ud; eller på de grønne pile for tilstødende kort.


METAR-TAF: